Time;durP1;ratioP1;P1;durP2;ratioP2;P2;SDS_P1;SDS_P2;PMS_P1;PMS_P2;Temp;Humidity;BMP_temperature;BMP_pressure;BME280_temperature;BME280_humidity;BME280_pressure;Samples;Min_cycle;Max_cycle;Signal;HPM_P1;HPM_P2
2023/02/27 00:02:14;;;;;;;4.38;2.00;;;3.30;99.90;;;;;;5013155;28;20072;-82
2023/02/27 00:04:39;;;;;;;2.88;1.80;;;3.30;99.90;;;;;;5013616;28;20077;-82
2023/02/27 00:07:06;;;;;;;2.72;2.10;;;3.40;99.90;;;;;;5013160;28;20033;-82
2023/02/27 00:09:32;;;;;;;2.28;2.00;;;3.80;99.90;;;;;;5013059;28;20445;-81
2023/02/27 00:11:58;;;;;;;2.78;2.00;;;3.70;99.90;;;;;;5013024;28;20049;-81
2023/02/27 00:14:23;;;;;;;2.30;2.08;;;3.40;99.90;;;;;;5012657;28;20030;-82
2023/02/27 00:16:49;;;;;;;3.42;2.20;;;3.30;99.90;;;;;;4995557;28;20029;-82
2023/02/27 00:19:15;;;;;;;4.28;2.35;;;3.80;99.90;;;;;;5012835;28;20490;-82
2023/02/27 00:21:43;;;;;;;4.28;2.25;;;3.40;99.90;;;;;;5013298;28;20053;-82
2023/02/27 00:24:09;;;;;;;3.03;2.25;;;3.40;99.90;;;;;;5012826;28;20048;-81
2023/02/27 00:26:35;;;;;;;3.35;2.08;;;3.80;99.90;;;;;;4995227;28;20033;-81
2023/02/27 00:29:01;;;;;;;2.80;2.50;;;3.20;99.90;;;;;;5012488;28;20036;-81
2023/02/27 00:31:26;;;;;;;2.35;2.10;;;3.20;99.90;;;;;;5013151;28;20022;-82
2023/02/27 00:33:52;;;;;;;4.07;2.63;;;3.70;99.90;;;;;;4995143;28;20029;-81
2023/02/27 00:36:18;;;;;;;4.20;3.20;;;3.20;99.90;;;;;;5012829;28;20053;-82
2023/02/27 00:38:43;;;;;;;3.20;2.63;;;3.60;99.90;;;;;;5012777;28;20104;-81
2023/02/27 00:41:09;;;;;;;5.95;2.67;;;3.00;99.90;;;;;;4994772;28;20597;-82
2023/02/27 00:43:34;;;;;;;2.67;2.47;;;3.40;99.90;;;;;;5012045;28;20426;-82
2023/02/27 00:46:00;;;;;;;5.15;2.60;;;3.50;99.90;;;;;;5012830;28;20029;-82
2023/02/27 00:48:26;;;;;;;3.40;2.70;;;3.20;99.90;;;;;;5011965;28;20026;-81
2023/02/27 00:50:51;;;;;;;3.88;3.20;;;3.40;99.90;;;;;;5012635;28;20034;-82
2023/02/27 00:53:17;;;;;;;4.82;3.35;;;3.00;99.90;;;;;;5012767;28;20030;-81
2023/02/27 00:55:42;;;;;;;4.32;3.40;;;3.20;99.90;;;;;;5012074;28;20064;-82
2023/02/27 00:58:08;;;;;;;3.13;2.83;;;3.60;99.90;;;;;;5031594;28;20060;-81
2023/02/27 01:00:34;;;;;;;3.28;2.70;;;3.20;99.90;;;;;;5032088;28;20025;-81
2023/02/27 01:03:00;;;;;;;4.22;3.00;;;3.50;99.90;;;;;;5032384;28;20463;-81
2023/02/27 01:05:26;;;;;;;6.50;2.90;;;3.40;99.90;;;;;;5032090;28;20025;-82
2023/02/27 01:07:52;;;;;;;4.45;3.70;;;3.70;99.90;;;;;;5031978;28;20414;-82
2023/02/27 01:10:18;;;;;;;3.60;2.92;;;3.50;99.90;;;;;;5032282;28;20030;-82
2023/02/27 01:12:44;;;;;;;3.92;2.78;;;3.40;99.90;;;;;;5031710;28;20371;-81
2023/02/27 01:15:10;;;;;;;4.47;3.17;;;3.10;99.90;;;;;;5032004;28;20096;-82
2023/02/27 01:17:36;;;;;;;3.30;2.97;;;3.10;99.90;;;;;;5031922;28;20034;-82
2023/02/27 01:20:03;;;;;;;3.97;3.22;;;3.50;99.90;;;;;;5032354;28;20033;-82
2023/02/27 01:22:28;;;;;;;3.72;3.10;;;3.00;99.90;;;;;;5031815;28;20074;-82
2023/02/27 01:24:54;;;;;;;4.78;2.97;;;3.50;99.90;;;;;;5032266;28;20033;-82
2023/02/27 01:27:19;;;;;;;5.30;3.72;;;3.30;99.90;;;;;;5031606;28;20531;-81
2023/02/27 01:29:46;;;;;;;4.43;3.40;;;3.30;99.90;;;;;;5031716;28;20493;-81
2023/02/27 01:32:12;;;;;;;4.53;3.63;;;3.30;99.90;;;;;;5031789;28;20076;-81
2023/02/27 01:34:37;;;;;;;4.95;3.40;;;3.30;99.90;;;;;;5031963;28;20032;-82
2023/02/27 01:37:03;;;;;;;3.95;3.22;;;3.20;99.90;;;;;;5031755;28;20037;-81
2023/02/27 01:39:31;;;;;;;4.53;3.28;;;3.60;99.90;;;;;;5031976;28;20386;-82
2023/02/27 01:41:56;;;;;;;5.07;3.47;;;3.20;99.90;;;;;;5031790;28;20132;-82
2023/02/27 01:44:25;;;;;;;5.35;3.72;;;3.60;99.90;;;;;;5031394;28;20553;-82
2023/02/27 01:46:51;;;;;;;4.03;3.20;;;3.50;99.90;;;;;;5032150;28;20029;-81
2023/02/27 01:49:32;;;;;;;4.72;3.30;;;3.20;99.90;;;;;;5031698;28;20390;-81
2023/02/27 01:52:04;;;;;;;3.28;2.97;;;3.10;99.90;;;;;;5031468;28;20026;-81
2023/02/27 01:54:35;;;;;;;3.92;3.33;;;2.90;99.90;;;;;;5031518;28;20037;-81
2023/02/27 01:57:05;;;;;;;4.30;3.30;;;3.60;99.90;;;;;;5011136;28;20108;-82
2023/02/27 01:59:31;;;;;;;3.50;2.88;;;3.70;99.90;;;;;;5013550;28;20497;-82
2023/02/27 02:01:57;;;;;;;6.00;3.17;;;3.50;99.90;;;;;;5015569;28;20104;-82
2023/02/27 02:04:31;;;;;;;3.63;2.63;;;3.50;99.90;;;;;;5015434;28;20124;-82
2023/02/27 02:07:06;;;;;;;3.95;2.90;;;3.20;99.90;;;;;;5015491;28;20030;-81
2023/02/27 02:09:36;;;;;;;3.47;2.78;;;3.60;99.90;;;;;;5015545;28;20049;-82
2023/02/27 02:12:03;;;;;;;5.43;2.65;;;3.60;99.90;;;;;;5015138;28;20026;-82
2023/02/27 02:14:29;;;;;;;3.30;3.00;;;3.20;99.90;;;;;;5015754;28;20052;-81
2023/02/27 02:17:31;;;;;;;2.83;2.50;;;3.40;99.90;;;;;;5015224;28;20486;-81
2023/02/27 02:20:51;;;;;;;3.63;3.00;;;3.10;99.90;;;;;;5015036;28;20049;-82
2023/02/27 02:23:42;;;;;;;3.28;2.53;;;3.20;99.90;;;;;;4954563;28;20043;-82
2023/02/27 02:26:30;;;;;;;3.38;2.78;;;3.20;99.90;;;;;;4954278;29;20059;-81
2023/02/27 02:29:28;;;;;;;3.65;2.40;;;3.20;99.90;;;;;;4954515;29;20484;-81
2023/02/27 02:32:08;;;;;;;4.38;2.58;;;3.00;99.90;;;;;;4935136;29;20038;-82
2023/02/27 02:34:50;;;;;;;3.22;2.60;;;3.10;99.90;;;;;;4935190;29;20614;-80
2023/02/27 02:37:36;;;;;;;3.58;2.60;;;3.10;99.90;;;;;;4935197;28;20032;-83
2023/02/27 02:40:34;;;;;;;3.20;2.47;;;3.00;99.90;;;;;;4934339;29;20126;-83
2023/02/27 02:43:22;;;;;;;3.50;2.35;;;3.10;99.90;;;;;;4934725;29;20034;-82
2023/02/27 02:45:53;;;;;;;3.78;2.70;;;3.20;99.90;;;;;;4935403;29;20039;-81
2023/02/27 02:48:42;;;;;;;3.72;2.13;;;3.20;99.90;;;;;;4934875;29;20095;-81
2023/02/27 02:51:38;;;;;;;3.20;2.42;;;3.10;99.90;;;;;;4934932;29;20036;-81
2023/02/27 02:54:35;;;;;;;2.70;2.28;;;3.00;99.90;;;;;;4934383;29;20523;-81
2023/02/27 02:57:28;;;;;;;3.10;2.50;;;3.30;99.90;;;;;;4960548;28;20050;-81
2023/02/27 03:00:27;;;;;;;2.53;2.20;;;3.30;99.90;;;;;;4973026;28;20038;-81
2023/02/27 03:03:07;;;;;;;3.35;2.20;;;3.20;99.90;;;;;;4953415;29;20046;-81
2023/02/27 03:05:41;;;;;;;3.20;2.42;;;3.10;99.90;;;;;;4953741;29;20038;-81
2023/02/27 03:08:16;;;;;;;4.85;2.70;;;3.20;99.90;;;;;;4968606;28;20038;-81
2023/02/27 03:10:48;;;;;;;3.42;2.10;;;3.50;99.90;;;;;;4972202;28;20030;-81
2023/02/27 03:13:20;;;;;;;3.05;2.33;;;3.00;99.90;;;;;;4973436;28;20045;-81
2023/02/27 03:16:16;;;;;;;4.13;2.30;;;3.00;99.90;;;;;;4972552;28;20018;-81
2023/02/27 03:19:17;;;;;;;2.38;2.03;;;2.90;99.90;;;;;;4956718;28;20459;-81
2023/02/27 03:22:16;;;;;;;3.13;2.33;;;2.90;99.90;;;;;;4972704;28;20514;-81
2023/02/27 03:24:48;;;;;;;3.45;2.47;;;2.80;99.90;;;;;;4965196;28;20166;-81
2023/02/27 03:27:16;;;;;;;2.55;2.08;;;3.00;99.90;;;;;;4973320;28;20477;-81
2023/02/27 03:30:12;;;;;;;3.28;2.22;;;3.20;99.90;;;;;;4972766;28;20093;-81
2023/02/27 03:32:46;;;;;;;3.33;2.80;;;2.90;99.90;;;;;;4971763;28;20031;-81
2023/02/27 03:35:13;;;;;;;2.88;2.40;;;2.70;99.90;;;;;;4972707;28;20137;-81
2023/02/27 03:37:57;;;;;;;3.08;2.25;;;2.90;99.90;;;;;;4979016;28;20398;-81
2023/02/27 03:40:38;;;;;;;4.60;2.60;;;2.80;99.90;;;;;;5013704;28;20018;-81
2023/02/27 03:43:13;;;;;;;4.78;2.80;;;2.80;99.90;;;;;;5013602;28;20032;-81
2023/02/27 03:45:51;;;;;;;4.13;2.63;;;2.90;99.90;;;;;;5013929;28;20033;-81
2023/02/27 03:48:16;;;;;;;6.82;2.90;;;2.90;99.90;;;;;;5013488;28;20028;-81
2023/02/27 03:50:42;;;;;;;2.88;2.38;;;2.70;99.90;;;;;;5013512;28;20029;-81
2023/02/27 03:53:22;;;;;;;4.68;2.42;;;3.20;99.90;;;;;;5013074;28;20530;-81
2023/02/27 03:55:50;;;;;;;2.50;2.25;;;2.90;99.90;;;;;;5013648;28;20052;-81
2023/02/27 03:58:16;;;;;;;3.60;2.40;;;3.20;99.90;;;;;;5033011;28;20029;-81
2023/02/27 04:00:42;;;;;;;3.60;2.20;;;2.80;99.90;;;;;;5033177;28;20029;-81
2023/02/27 04:03:08;;;;;;;2.38;2.15;;;2.80;99.90;;;;;;5015305;28;20029;-81
2023/02/27 04:05:34;;;;;;;3.15;2.28;;;2.90;99.90;;;;;;5033430;28;20540;-81
2023/02/27 04:08:18;;;;;;;3.15;2.42;;;2.60;99.90;;;;;;5032698;28;20100;-81
2023/02/27 04:10:43;;;;;;;2.88;2.10;;;2.70;99.90;;;;;;5032462;28;20482;-81
2023/02/27 04:13:23;;;;;;;6.53;2.05;;;3.20;99.90;;;;;;5033044;28;20036;-81
2023/02/27 04:15:59;;;;;;;3.13;2.13;;;2.80;99.90;;;;;;5032665;28;20510;-81
2023/02/27 04:18:46;;;;;;;3.03;2.15;;;2.60;99.90;;;;;;5032656;28;20026;-81
2023/02/27 04:21:29;;;;;;;4.82;2.20;;;2.50;99.90;;;;;;5032210;28;20083;-81
2023/02/27 04:24:00;;;;;;;2.30;1.83;;;2.50;99.90;;;;;;5032058;28;20034;-81
2023/02/27 04:26:30;;;;;;;2.65;1.75;;;2.60;99.90;;;;;;5032539;28;20108;-81
2023/02/27 04:29:07;;;;;;;2.85;2.50;;;2.90;99.90;;;;;;5032591;28;20057;-81
2023/02/27 04:32:03;;;;;;;3.70;2.13;;;2.30;99.90;;;;;;5032488;28;20025;-81
2023/02/27 04:34:42;;;;;;;5.45;1.92;;;2.30;99.90;;;;;;5032517;28;20053;-81
2023/02/27 04:37:14;;;;;;;2.45;1.98;;;2.30;99.90;;;;;;5032120;28;20025;-81
2023/02/27 04:39:55;;;;;;;3.30;2.10;;;3.10;99.90;;;;;;5032784;28;20433;-81
2023/02/27 04:42:34;;;;;;;2.00;1.80;;;2.70;99.90;;;;;;5032265;28;20029;-81
2023/02/27 04:45:03;;;;;;;2.72;1.95;;;2.80;99.90;;;;;;5032210;28;20117;-81
2023/02/27 04:47:36;;;;;;;6.28;2.03;;;2.60;99.90;;;;;;5032452;28;20108;-81
2023/02/27 04:50:15;;;;;;;3.10;2.00;;;2.50;99.90;;;;;;5031989;28;20030;-81
2023/02/27 04:52:50;;;;;;;3.58;2.17;;;2.50;99.90;;;;;;5032225;28;20528;-81
2023/02/27 04:55:26;;;;;;;2.40;1.98;;;2.30;99.90;;;;;;5031923;28;20029;-82
2023/02/27 04:58:18;;;;;;;4.90;2.40;;;2.20;99.90;;;;;;5014810;28;20494;-82
2023/02/27 05:00:49;;;;;;;2.60;2.22;;;3.00;99.90;;;;;;5007825;28;20053;-80
2023/02/27 05:03:21;;;;;;;5.47;2.25;;;2.70;99.90;;;;;;5012261;28;20445;-82
2023/02/27 05:05:49;;;;;;;2.60;2.10;;;2.20;99.90;;;;;;5012066;28;20447;-82
2023/02/27 05:08:42;;;;;;;4.60;2.20;;;2.10;99.90;;;;;;5012549;28;20037;-80
2023/02/27 05:11:17;;;;;;;3.05;2.00;;;2.10;99.90;;;;;;5012344;28;20033;-80
2023/02/27 05:13:50;;;;;;;3.00;2.42;;;1.90;99.90;;;;;;5012718;28;20026;-82
2023/02/27 05:16:34;;;;;;;2.50;1.92;;;2.00;99.90;;;;;;5012269;28;20069;-80
2023/02/27 05:19:01;;;;;;;3.13;2.20;;;2.20;99.90;;;;;;5011940;28;20502;-80
2023/02/27 05:21:35;;;;;;;4.82;2.38;;;2.30;99.90;;;;;;5012011;28;20044;-80
2023/02/27 05:24:19;;;;;;;2.95;2.50;;;2.20;99.90;;;;;;5012180;28;20034;-80
2023/02/27 05:26:54;;;;;;;3.28;2.47;;;1.80;99.90;;;;;;5012502;28;20029;-82
2023/02/27 05:29:35;;;;;;;3.65;2.90;;;1.60;99.90;;;;;;5012113;28;20034;-82
2023/02/27 05:32:33;;;;;;;3.35;2.53;;;1.50;99.90;;;;;;5012106;28;20026;-82
2023/02/27 05:35:19;;;;;;;3.10;2.20;;;1.50;99.90;;;;;;5013761;28;20026;-82
2023/02/27 05:38:01;;;;;;;3.53;2.33;;;1.60;99.90;;;;;;5016046;28;20030;-82
2023/02/27 05:40:51;;;;;;;2.95;2.42;;;1.90;99.90;;;;;;5015920;28;20088;-82
2023/02/27 05:43:23;;;;;;;3.20;2.50;;;1.50;99.90;;;;;;5010746;28;20332;-82
2023/02/27 05:45:52;;;;;;;3.28;2.15;;;2.00;99.90;;;;;;5015958;28;20052;-80
2023/02/27 05:48:24;;;;;;;2.40;2.20;;;1.50;99.90;;;;;;5015353;28;20092;-81
2023/02/27 05:50:51;;;;;;;3.83;2.85;;;1.40;99.90;;;;;;5015819;28;20033;-80
2023/02/27 05:53:20;;;;;;;6.50;3.40;;;1.40;99.90;;;;;;5015750;28;20050;-82
2023/02/27 05:55:53;;;;;;;7.55;4.15;;;1.30;99.90;;;;;;5015512;28;20046;-80
2023/02/27 05:58:28;;;;;;;6.22;4.15;;;1.30;99.90;;;;;;5035213;28;20027;-79
2023/02/27 06:01:01;;;;;;;3.60;3.00;;;1.30;99.90;;;;;;5035298;28;20030;-80
2023/02/27 06:03:30;;;;;;;5.53;4.05;;;1.40;99.90;;;;;;5035003;28;20021;-80
2023/02/27 06:05:58;;;;;;;4.78;4.20;;;1.40;99.90;;;;;;5035355;28;20033;-81
2023/02/27 06:08:24;;;;;;;7.70;6.03;;;1.70;99.90;;;;;;5035531;28;20026;-80
2023/02/27 06:10:50;;;;;;;3.70;2.80;;;1.30;99.90;;;;;;5035090;28;20030;-80
2023/02/27 06:13:16;;;;;;;3.78;3.40;;;1.30;99.90;;;;;;5034694;28;20029;-80
2023/02/27 06:15:43;;;;;;;3.80;3.40;;;1.60;99.90;;;;;;5035362;28;20390;-80
2023/02/27 06:18:10;;;;;;;4.50;3.33;;;1.50;99.90;;;;;;5017011;28;20025;-80
2023/02/27 06:20:36;;;;;;;3.80;3.28;;;1.20;99.90;;;;;;5035002;28;20083;-80
2023/02/27 06:23:01;;;;;;;4.25;3.20;;;1.70;99.90;;;;;;5034571;28;20033;-80
2023/02/27 06:25:27;;;;;;;4.25;3.35;;;1.10;99.90;;;;;;5034764;28;20030;-80
2023/02/27 06:27:53;;;;;;;5.93;3.63;;;1.50;99.90;;;;;;5016947;28;20044;-80
2023/02/27 06:30:19;;;;;;;4.97;3.70;;;1.40;99.90;;;;;;5034604;28;20029;-79
2023/02/27 06:32:44;;;;;;;4.63;3.42;;;1.20;99.90;;;;;;5034660;28;20056;-81
2023/02/27 06:35:10;;;;;;;5.93;3.80;;;1.30;99.90;;;;;;5016800;28;20071;-80
2023/02/27 06:37:36;;;;;;;5.05;3.75;;;1.30;99.90;;;;;;5034583;28;20052;-81
2023/02/27 06:40:03;;;;;;;6.25;3.80;;;1.30;99.90;;;;;;5034822;28;20382;-81
2023/02/27 06:42:29;;;;;;;7.28;4.10;;;1.40;99.90;;;;;;5034464;28;20482;-81
2023/02/27 06:44:54;;;;;;;5.10;2.90;;;1.30;99.90;;;;;;5034289;28;20073;-80
2023/02/27 06:47:20;;;;;;;7.65;3.63;;;1.70;99.90;;;;;;5033399;28;20060;-80
2023/02/27 06:49:46;;;;;;;4.85;3.58;;;1.30;99.90;;;;;;5033377;28;20029;-79
2023/02/27 06:52:11;;;;;;;8.43;4.18;;;1.30;99.90;;;;;;5006230;28;20049;-81
2023/02/27 06:54:37;;;;;;;6.78;3.60;;;1.40;99.90;;;;;;5033758;28;20048;-81
2023/02/27 06:57:03;;;;;;;5.47;3.63;;;1.70;99.90;;;;;;5023011;28;20065;-82
2023/02/27 06:59:29;;;;;;;4.65;3.00;;;1.40;99.90;;;;;;5014348;28;20494;-82
2023/02/27 07:01:55;;;;;;;6.35;3.50;;;2.20;99.90;;;;;;5014397;28;20041;-81
2023/02/27 07:04:20;;;;;;;6.20;3.90;;;1.50;99.90;;;;;;4996610;28;20038;-82
2023/02/27 07:06:46;;;;;;;6.07;3.33;;;1.90;99.90;;;;;;5014356;28;20111;-81
2023/02/27 07:09:12;;;;;;;4.60;2.90;;;1.50;99.90;;;;;;5014187;28;20393;-81
2023/02/27 07:11:37;;;;;;;5.45;3.22;;;2.20;99.90;;;;;;5014384;28;20030;-81
2023/02/27 07:14:03;;;;;;;5.20;3.30;;;2.20;99.90;;;;;;5014306;28;20022;-81
2023/02/27 07:16:28;;;;;;;3.78;3.05;;;2.40;99.90;;;;;;5013495;28;20033;-81
2023/02/27 07:18:54;;;;;;;6.55;3.17;;;2.40;99.90;;;;;;5013889;28;20440;-80
2023/02/27 07:21:20;;;;;;;4.60;3.08;;;2.60;99.90;;;;;;5014402;28;20026;-81
2023/02/27 07:23:45;;;;;;;9.43;3.25;;;2.10;99.90;;;;;;5013542;28;20026;-81
2023/02/27 07:26:11;;;;;;;4.68;3.22;;;2.60;99.90;;;;;;5013770;28;20034;-81
2023/02/27 07:28:37;;;;;;;6.65;3.95;;;2.70;99.90;;;;;;5014009;28;20470;-81
2023/02/27 07:31:02;;;;;;;8.85;4.90;;;2.80;99.90;;;;;;5013313;28;20061;-81
2023/02/27 07:33:28;;;;;;;9.25;5.68;;;2.20;99.90;;;;;;5014055;28;20029;-81
2023/02/27 07:35:54;;;;;;;10.60;6.35;;;2.40;99.90;;;;;;5013837;28;20026;-81
2023/02/27 07:38:21;;;;;;;10.90;6.63;;;3.00;99.90;;;;;;5013441;28;20030;-82
2023/02/27 07:40:47;;;;;;;10.63;7.05;;;2.60;99.90;;;;;;5013914;28;20398;-81
2023/02/27 07:43:13;;;;;;;10.15;5.93;;;3.20;99.90;;;;;;5013616;28;20030;-81
2023/02/27 07:45:38;;;;;;;10.05;5.68;;;2.60;99.90;;;;;;5013180;28;20029;-81
2023/02/27 07:48:04;;;;;;;7.50;5.00;;;2.70;99.90;;;;;;5013521;28;20044;-82
2023/02/27 07:50:30;;;;;;;7.78;4.40;;;2.70;99.90;;;;;;5013804;28;20057;-91
2023/02/27 07:52:56;;;;;;;6.07;3.80;;;3.00;99.90;;;;;;4997685;28;20022;-91
2023/02/27 07:55:21;;;;;;;5.03;3.38;;;3.70;99.90;;;;;;5014210;28;20026;-87
2023/02/27 07:57:47;;;;;;;7.45;3.80;;;3.70;99.90;;;;;;5030787;28;20029;-81
2023/02/27 08:00:13;;;;;;;7.35;3.08;;;3.30;99.90;;;;;;5032609;28;20568;-82
2023/02/27 08:02:39;;;;;;;5.93;3.55;;;3.40;99.90;;;;;;5033030;28;20379;-82
2023/02/27 08:05:05;;;;;;;4.20;3.20;;;3.30;99.90;;;;;;5033233;28;20112;-82
2023/02/27 08:07:31;;;;;;;4.97;2.95;;;3.50;99.90;;;;;;5032852;28;20028;-81
2023/02/27 08:09:57;;;;;;;4.50;2.90;;;3.40;99.90;;;;;;5032784;28;20025;-82
2023/02/27 08:12:23;;;;;;;3.75;2.78;;;3.80;99.90;;;;;;5032831;28;20029;-82
2023/02/27 08:14:48;;;;;;;5.97;3.25;;;4.00;99.90;;;;;;5032882;28;20100;-82
2023/02/27 08:17:14;;;;;;;5.35;2.90;;;3.60;99.90;;;;;;5032704;28;20025;-81
2023/02/27 08:19:40;;;;;;;3.88;2.70;;;4.00;99.90;;;;;;5032932;28;20107;-82
2023/02/27 08:22:06;;;;;;;3.83;2.72;;;3.80;99.90;;;;;;5032772;28;20073;-82
2023/02/27 08:24:31;;;;;;;3.65;2.80;;;4.00;99.90;;;;;;5032528;28;20048;-82
2023/02/27 08:26:57;;;;;;;3.05;2.75;;;4.30;99.90;;;;;;5032634;28;20387;-81
2023/02/27 08:29:23;;;;;;;5.18;2.70;;;4.70;99.90;;;;;;5032253;28;20030;-82
2023/02/27 08:31:48;;;;;;;3.30;2.70;;;4.40;99.90;;;;;;5033008;28;20025;-81
2023/02/27 08:34:15;;;;;;;3.55;2.55;;;4.90;99.90;;;;;;5032539;28;20039;-82
2023/02/27 08:36:41;;;;;;;3.53;2.50;;;5.20;99.90;;;;;;5032242;28;20109;-82
2023/02/27 08:39:07;;;;;;;3.10;2.70;;;5.10;99.90;;;;;;5032370;28;20108;-81
2023/02/27 08:41:33;;;;;;;3.92;2.90;;;5.20;99.90;;;;;;5032345;28;20029;-82
2023/02/27 08:43:59;;;;;;;3.97;2.60;;;6.30;99.90;;;;;;5014274;28;20037;-82
2023/02/27 08:46:25;;;;;;;2.83;2.40;;;6.30;99.90;;;;;;5032722;28;20017;-82
2023/02/27 08:48:50;;;;;;;5.70;2.80;;;6.50;99.90;;;;;;5032284;28;20029;-81
2023/02/27 08:51:16;;;;;;;4.03;2.70;;;6.50;99.90;;;;;;5032073;28;20017;-82
2023/02/27 08:53:41;;;;;;;5.50;2.53;;;6.90;99.90;;;;;;5032233;28;20029;-81
2023/02/27 08:56:07;;;;;;;4.68;2.55;;;7.80;99.90;;;;;;5028246;28;20485;-82
2023/02/27 08:58:34;;;;;;;4.15;2.90;;;7.30;99.90;;;;;;5016736;28;20025;-82
2023/02/27 09:01:00;;;;;;;3.85;2.60;;;8.10;99.90;;;;;;5031759;28;20022;-82
2023/02/27 09:03:27;;;;;;;4.40;3.00;;;8.00;99.90;;;;;;5032024;28;20037;-81
2023/02/27 09:05:54;;;;;;;3.03;2.70;;;8.30;99.90;;;;;;5012085;28;20494;-81
2023/02/27 09:08:20;;;;;;;2.85;2.50;;;10.80;99.90;;;;;;5011996;28;20026;-82
2023/02/27 09:10:45;;;;;;;3.10;2.50;;;12.20;99.90;;;;;;5011654;28;20033;-82
2023/02/27 09:13:12;;;;;;;2.90;2.60;;;11.50;99.90;;;;;;5012444;28;20026;-82
2023/02/27 09:15:37;;;;;;;3.08;2.67;;;11.70;99.90;;;;;;5011937;28;20033;-82
2023/02/27 09:18:05;;;;;;;3.45;3.13;;;9.60;99.90;;;;;;5031832;28;20072;-81
2023/02/27 09:20:34;;;;;;;3.13;2.83;;;9.00;99.90;;;;;;5031498;28;20540;-82
2023/02/27 09:23:01;;;;;;;3.20;2.80;;;8.10;99.90;;;;;;5031508;28;20021;-82
2023/02/27 09:25:27;;;;;;;5.70;3.40;;;9.40;99.90;;;;;;5031559;28;20500;-82
2023/02/27 09:27:53;;;;;;;3.47;2.67;;;9.00;99.90;;;;;;5031673;28;20026;-82
2023/02/27 09:30:19;;;;;;;6.00;3.30;;;8.30;99.90;;;;;;5014874;28;20116;-82
2023/02/27 09:32:45;;;;;;;3.72;3.00;;;7.10;99.90;;;;;;5012046;28;20022;-81
2023/02/27 09:35:10;;;;;;;3.83;2.85;;;6.70;99.90;;;;;;5012279;28;20030;-81
2023/02/27 09:37:36;;;;;;;4.93;3.10;;;7.20;99.90;;;;;;5012118;28;20101;-81
2023/02/27 09:40:04;;;;;;;4.72;3.22;;;7.30;99.90;;;;;;5011908;28;20471;-81
2023/02/27 09:42:44;;;;;;;5.15;3.60;;;7.20;99.90;;;;;;5012183;28;20026;-81
2023/02/27 09:45:19;;;;;;;4.40;3.38;;;7.30;99.90;;;;;;5011942;28;20038;-81
2023/02/27 09:47:52;;;;;;;8.02;3.97;;;8.10;99.90;;;;;;5011734;28;20435;-82
2023/02/27 09:50:30;;;;;;;3.55;3.10;;;10.40;99.90;;;;;;5011745;28;20418;-82
2023/02/27 09:52:56;;;;;;;5.55;3.08;;;11.10;99.90;;;;;;5012336;28;20026;-81
2023/02/27 09:55:23;;;;;;;4.32;3.40;;;11.00;99.90;;;;;;5011281;28;20034;-81
2023/02/27 09:58:06;;;;;;;4.40;3.15;;;10.30;99.90;;;;;;5028652;28;20383;-81
2023/02/27 10:01:10;;;;;;;4.25;3.55;;;9.90;99.90;;;;;;5031518;28;20025;-82
2023/02/27 10:03:57;;;;;;;3.30;3.00;;;9.70;99.90;;;;;;4989946;28;20101;-81
2023/02/27 10:06:47;;;;;;;3.53;3.22;;;10.20;99.90;;;;;;4989922;28;20077;-81
2023/02/27 10:09:31;;;;;;;3.90;3.53;;;9.50;99.90;;;;;;4986273;28;20520;-82
2023/02/27 10:12:33;;;;;;;3.50;3.20;;;9.50;99.90;;;;;;4980954;28;20055;-82
2023/02/27 10:15:19;;;;;;;6.60;3.75;;;9.10;99.90;;;;;;4970821;28;20031;-82
2023/02/27 10:17:50;;;;;;;5.90;4.25;;;9.10;99.90;;;;;;4989540;28;20034;-82
2023/02/27 10:20:23;;;;;;;4.10;3.20;;;9.40;99.90;;;;;;4989797;28;20069;-82
2023/02/27 10:22:50;;;;;;;4.18;3.28;;;8.80;99.90;;;;;;4993012;28;20597;-81
2023/02/27 10:25:18;;;;;;;3.90;3.20;;;8.80;99.90;;;;;;4992171;28;20121;-81
2023/02/27 10:27:46;;;;;;;3.70;3.28;;;8.30;99.90;;;;;;4988722;28;20041;-81
2023/02/27 10:30:25;;;;;;;3.70;3.40;;;8.40;99.90;;;;;;4973493;28;20027;-81
2023/02/27 10:32:55;;;;;;;5.32;3.50;;;8.60;99.90;;;;;;4974155;28;20108;-81
2023/02/27 10:35:32;;;;;;;3.75;3.38;;;8.80;99.90;;;;;;4973463;28;20542;-81
2023/02/27 10:38:01;;;;;;;3.35;2.95;;;8.40;99.90;;;;;;4973680;28;20058;-81
2023/02/27 10:40:28;;;;;;;3.72;3.30;;;8.50;99.90;;;;;;4994644;28;20030;-81
2023/02/27 10:42:55;;;;;;;4.75;3.70;;;9.10;99.90;;;;;;5014413;28;20553;-81
2023/02/27 10:45:20;;;;;;;3.40;3.10;;;9.50;99.90;;;;;;5014601;28;20080;-81
2023/02/27 10:47:46;;;;;;;4.65;3.30;;;9.70;99.90;;;;;;5014583;28;20026;-82
2023/02/27 10:50:26;;;;;;;6.07;3.85;;;9.80;99.90;;;;;;4997058;28;20471;-82
2023/02/27 10:52:55;;;;;;;6.95;5.72;;;9.80;99.90;;;;;;5013922;28;20030;-82
2023/02/27 10:55:30;;;;;;;3.80;3.45;;;10.30;99.90;;;;;;5014167;28;20045;-82
2023/02/27 10:57:57;;;;;;;3.70;3.38;;;9.60;99.90;;;;;;5032289;28;20393;-82
2023/02/27 11:00:46;;;;;;;4.15;3.75;;;9.60;99.90;;;;;;5033603;28;20026;-83
2023/02/27 11:03:24;;;;;;;3.80;3.50;;;8.80;99.90;;;;;;5033673;28;20040;-82
2023/02/27 11:05:55;;;;;;;4.57;3.80;;;9.10;99.90;;;;;;5016564;28;20034;-81
2023/02/27 11:08:28;;;;;;;6.90;3.97;;;9.10;99.90;;;;;;5013742;28;20026;-82
2023/02/27 11:10:53;;;;;;;4.00;3.70;;;9.20;99.90;;;;;;5014019;28;20022;-83
2023/02/27 11:13:21;;;;;;;5.45;4.32;;;9.40;99.90;;;;;;5014745;28;20026;-83
2023/02/27 11:16:06;;;;;;;4.13;3.72;;;9.40;99.90;;;;;;5007118;28;20445;-83
2023/02/27 11:18:34;;;;;;;13.20;9.32;;;9.30;99.90;;;;;;5016461;28;20029;-82
2023/02/27 11:21:24;;;;;;;6.18;5.57;;;8.70;99.90;;;;;;5025989;28;20574;-82
2023/02/27 11:23:55;;;;;;;5.95;4.63;;;8.70;99.90;;;;;;5014495;28;20034;-82
2023/02/27 11:26:29;;;;;;;3.60;3.30;;;8.80;99.90;;;;;;5015330;28;20040;-82
2023/02/27 11:29:13;;;;;;;20.02;16.52;;;8.60;99.90;;;;;;5034018;28;20025;-83
2023/02/27 11:31:44;;;;;;;4.38;3.97;;;8.70;99.90;;;;;;5021834;28;20108;-83
2023/02/27 11:34:20;;;;;;;20.50;13.63;;;8.80;99.90;;;;;;5024742;28;20040;-82
2023/02/27 11:36:48;;;;;;;4.43;3.65;;;9.30;99.90;;;;;;5013852;28;20030;-82
2023/02/27 11:39:48;;;;;;;4.75;4.20;;;10.40;99.90;;;;;;5032479;28;20033;-82
2023/02/27 11:42:19;;;;;;;5.63;5.05;;;10.70;99.90;;;;;;4977334;28;20444;-82
2023/02/27 11:45:23;;;;;;;4.03;3.63;;;10.60;99.90;;;;;;4980307;28;20462;-82
2023/02/27 11:47:51;;;;;;;4.00;3.33;;;10.30;99.90;;;;;;4972698;28;20670;-82
2023/02/27 11:50:49;;;;;;;14.23;11.43;;;10.40;99.90;;;;;;4986076;28;20034;-83
2023/02/27 11:53:39;;;;;;;4.47;4.07;;;10.80;99.90;;;;;;4980072;28;20085;-79
2023/02/27 11:56:13;;;;;;;34.15;21.33;;;11.40;99.90;;;;;;4986574;28;20050;-84
2023/02/27 11:59:13;;;;;;;4.35;3.95;;;11.20;99.90;;;;;;4978168;28;20053;-81
2023/02/27 12:02:12;;;;;;;3.85;3.55;;;11.00;99.90;;;;;;4971654;28;20042;-81
2023/02/27 12:04:47;;;;;;;4.18;3.88;;;11.10;99.90;;;;;;4973864;28;20050;-82
2023/02/27 12:07:20;;;;;;;4.50;4.10;;;11.60;99.90;;;;;;4978769;28;20101;-81
2023/02/27 12:10:03;;;;;;;4.05;3.75;;;12.80;99.90;;;;;;4979956;28;20376;-81
2023/02/27 12:12:35;;;;;;;5.45;3.80;;;13.50;99.90;;;;;;4979287;28;20047;-82
2023/02/27 12:15:21;;;;;;;4.10;3.70;;;13.70;99.90;;;;;;4972133;28;20034;-81
2023/02/27 12:17:52;;;;;;;4.70;3.95;;;13.40;99.90;;;;;;4972396;28;20033;-81
2023/02/27 12:20:28;;;;;;;4.60;4.10;;;13.70;99.90;;;;;;5013061;28;20022;-81
2023/02/27 12:22:54;;;;;;;4.43;4.03;;;14.60;99.90;;;;;;5013335;28;20042;-81
2023/02/27 12:25:30;;;;;;;6.43;4.10;;;15.00;99.90;;;;;;5013382;28;20034;-82
2023/02/27 12:28:26;;;;;;;4.25;3.95;;;15.60;99.90;;;;;;5013353;28;20040;-82
2023/02/27 12:31:20;;;;;;;4.43;4.00;;;15.30;99.90;;;;;;5012470;28;20049;-81
2023/02/27 12:33:56;;;;;;;4.78;4.00;;;16.20;99.90;;;;;;5012946;28;20433;-81
2023/02/27 12:36:22;;;;;;;4.70;4.10;;;15.40;99.90;;;;;;5013153;28;20386;-81
2023/02/27 12:38:48;;;;;;;4.45;4.15;;;14.80;99.90;;;;;;5013250;28;20030;-82
2023/02/27 12:41:35;;;;;;;5.90;4.43;;;15.30;99.90;;;;;;5013117;28;20022;-82
2023/02/27 12:44:23;;;;;;;5.57;4.32;;;15.50;99.90;;;;;;4994976;28;20494;-82
2023/02/27 12:46:52;;;;;;;6.22;4.40;;;16.10;99.90;;;;;;5012984;28;20494;-82
2023/02/27 12:49:53;;;;;;;4.82;4.43;;;14.70;99.90;;;;;;5012693;28;20049;-82
2023/02/27 12:52:24;;;;;;;11.95;10.95;;;14.60;99.90;;;;;;4933348;29;20119;-81
2023/02/27 12:54:54;;;;;;;8.13;7.32;;;15.80;99.90;;;;;;4935141;28;20039;-81
2023/02/27 12:57:51;;;;;;;4.32;4.00;;;14.70;99.90;;;;;;4952193;29;20055;-81
2023/02/27 13:00:24;;;;;;;5.10;4.32;;;14.80;99.90;;;;;;4939940;29;20064;-81
2023/02/27 13:03:13;;;;;;;4.93;4.43;;;14.20;99.90;;;;;;4952170;29;20396;-81
2023/02/27 13:05:43;;;;;;;12.30;8.88;;;13.50;99.90;;;;;;4952432;29;20082;-81
2023/02/27 13:08:29;;;;;;;8.38;7.60;;;12.70;99.90;;;;;;4952552;29;20031;-81
2023/02/27 13:11:07;;;;;;;20.52;18.13;;;12.40;99.90;;;;;;4952313;29;20033;-81
2023/02/27 13:13:42;;;;;;;5.50;5.00;;;12.60;99.90;;;;;;4952240;29;20039;-81
2023/02/27 13:16:22;;;;;;;4.90;4.50;;;13.00;99.90;;;;;;4952355;29;20544;-80
2023/02/27 13:18:53;;;;;;;4.45;4.05;;;12.80;99.90;;;;;;4951872;29;20512;-81
2023/02/27 13:21:37;;;;;;;4.80;4.40;;;12.70;99.90;;;;;;4954720;29;20413;-81
2023/02/27 13:24:20;;;;;;;4.70;4.30;;;12.30;99.90;;;;;;4952215;29;20046;-81
2023/02/27 13:26:56;;;;;;;4.55;4.15;;;11.90;99.90;;;;;;4994725;28;20506;-81